createdAt,value
2023-03-28T00:02:14.527Z,25.13
2023-03-28T00:04:43.738Z,28.05
2023-03-28T00:07:13.126Z,25.98
2023-03-28T00:09:42.495Z,26.98
2023-03-28T00:12:11.984Z,25.55
2023-03-28T00:14:41.955Z,24.90
2023-03-28T00:17:11.199Z,23.45
2023-03-28T00:19:41.890Z,24.35
2023-03-28T00:22:12.364Z,23.42
2023-03-28T00:24:41.840Z,24.00
2023-03-28T00:27:11.586Z,23.50
2023-03-28T00:29:40.812Z,28.75
2023-03-28T00:32:10.840Z,24.08
2023-03-28T00:34:40.148Z,23.55
2023-03-28T00:37:11.696Z,22.80
2023-03-28T00:39:41.066Z,21.17
2023-03-28T00:44:56.894Z,21.20
2023-03-28T00:47:41.881Z,20.52
2023-03-28T00:50:33.987Z,20.92
2023-03-28T00:53:27.353Z,22.00
2023-03-28T00:56:09.207Z,22.55
2023-03-28T00:58:45.790Z,22.42
2023-03-28T01:01:22.879Z,21.75
2023-03-28T01:04:06.553Z,22.33
2023-03-28T01:06:47.633Z,21.95
2023-03-28T01:09:20.147Z,27.58
2023-03-28T01:11:53.729Z,21.00
2023-03-28T01:14:28.226Z,22.08
2023-03-28T01:16:58.691Z,20.80
2023-03-28T01:20:03.439Z,22.60
2023-03-28T01:23:23.676Z,18.98
2023-03-28T01:26:41.544Z,20.92
2023-03-28T01:32:39.798Z,20.95
2023-03-28T01:35:28.358Z,20.48
2023-03-28T01:38:21.410Z,25.33
2023-03-28T01:41:38.077Z,21.17
2023-03-28T01:44:22.984Z,19.25
2023-03-28T01:47:22.053Z,18.58
2023-03-28T01:50:30.726Z,21.13
2023-03-28T01:53:27.857Z,18.45
2023-03-28T01:56:14.383Z,19.10
2023-03-28T01:59:08.986Z,19.75
2023-03-28T02:02:06.445Z,18.55
2023-03-28T02:04:41.524Z,18.70
2023-03-28T02:07:14.161Z,19.27
2023-03-28T02:09:48.474Z,18.38
2023-03-28T02:12:47.041Z,17.95
2023-03-28T02:15:20.564Z,19.73
2023-03-28T02:18:03.456Z,19.80
2023-03-28T02:20:38.038Z,17.98
2023-03-28T02:23:25.214Z,17.83
2023-03-28T02:25:54.548Z,18.02
2023-03-28T02:28:25.333Z,19.27
2023-03-28T02:30:54.660Z,17.42
2023-03-28T02:33:45.699Z,17.50
2023-03-28T02:37:03.976Z,18.10
2023-03-28T02:39:52.554Z,18.92
2023-03-28T02:42:55.434Z,17.48
2023-03-28T02:46:05.724Z,17.73
2023-03-28T02:48:37.606Z,18.50
2023-03-28T02:51:35.868Z,17.35
2023-03-28T02:54:25.092Z,17.20
2023-03-28T02:57:29.340Z,18.40
2023-03-28T03:00:13.526Z,16.23
2023-03-28T03:02:46.304Z,17.13
2023-03-28T03:05:15.586Z,17.27
2023-03-28T03:07:44.897Z,17.55
2023-03-28T03:10:18.124Z,17.48
2023-03-28T03:12:47.744Z,16.98
2023-03-28T03:15:20.161Z,17.83
2023-03-28T03:17:49.643Z,18.17
2023-03-28T03:20:19.674Z,16.48
2023-03-28T03:22:48.870Z,17.80
2023-03-28T03:25:18.207Z,17.35
2023-03-28T03:27:47.582Z,17.92
2023-03-28T03:30:16.802Z,17.60
2023-03-28T03:32:46.197Z,18.08
2023-03-28T03:35:15.432Z,18.00
2023-03-28T03:37:44.631Z,17.67
2023-03-28T03:40:14.081Z,17.55
2023-03-28T03:42:46.358Z,17.70
2023-03-28T03:45:16.775Z,17.42
2023-03-28T03:47:46.155Z,18.95
2023-03-28T03:50:15.489Z,17.60
2023-03-28T03:52:44.711Z,16.73
2023-03-28T03:55:15.648Z,17.83
2023-03-28T03:57:44.807Z,17.70
2023-03-28T04:00:15.598Z,18.08
2023-03-28T04:02:44.823Z,17.50
2023-03-28T04:05:14.448Z,17.92
2023-03-28T04:07:43.963Z,16.98
2023-03-28T04:10:13.276Z,18.40
2023-03-28T04:12:42.550Z,17.50
2023-03-28T04:15:12.405Z,17.50
2023-03-28T04:17:42.136Z,18.25
2023-03-28T04:20:14.861Z,18.27
2023-03-28T04:22:45.183Z,17.90
2023-03-28T04:25:16.057Z,17.60
2023-03-28T04:27:48.504Z,18.50
2023-03-28T04:30:18.803Z,18.55
2023-03-28T04:32:51.406Z,18.25
2023-03-28T04:35:21.287Z,19.02
2023-03-28T04:37:50.808Z,18.85
2023-03-28T04:40:20.030Z,18.48
2023-03-28T04:42:49.268Z,18.73
2023-03-28T04:45:19.752Z,17.40
2023-03-28T04:47:49.819Z,18.20
2023-03-28T04:50:19.422Z,17.02
2023-03-28T04:52:48.640Z,18.45
2023-03-28T04:55:17.880Z,19.35
2023-03-28T04:57:47.052Z,17.63
2023-03-28T05:00:19.471Z,18.38
2023-03-28T05:02:48.859Z,17.42
2023-03-28T05:05:18.379Z,17.27
2023-03-28T05:07:47.542Z,17.20
2023-03-28T05:10:17.445Z,17.80
2023-03-28T05:12:46.601Z,17.95
2023-03-28T05:15:21.348Z,17.83
2023-03-28T05:17:52.645Z,17.60
2023-03-28T05:20:22.172Z,17.52
2023-03-28T05:22:51.301Z,17.02
2023-03-28T05:25:21.451Z,17.13
2023-03-28T05:27:52.260Z,17.38
2023-03-28T05:30:22.157Z,17.52
2023-03-28T05:32:51.331Z,17.38
2023-03-28T05:35:20.684Z,16.60
2023-03-28T05:37:50.027Z,15.95
2023-03-28T05:40:19.774Z,18.13
2023-03-28T05:42:49.530Z,17.42
2023-03-28T05:45:18.928Z,17.10
2023-03-28T05:47:48.224Z,16.77
2023-03-28T05:50:17.462Z,16.50
2023-03-28T05:52:46.639Z,17.13
2023-03-28T05:55:16.026Z,16.63
2023-03-28T05:57:45.247Z,15.95
2023-03-28T06:00:15.284Z,16.90
2023-03-28T06:02:44.725Z,16.60
2023-03-28T06:05:14.738Z,16.70
2023-03-28T06:07:44.168Z,16.80
2023-03-28T06:10:16.510Z,16.38
2023-03-28T06:12:46.113Z,15.57
2023-03-28T06:15:15.471Z,16.02
2023-03-28T06:17:44.828Z,15.52
2023-03-28T06:20:14.481Z,16.35
2023-03-28T06:22:44.004Z,15.98
2023-03-28T06:25:13.378Z,15.88
2023-03-28T06:27:42.662Z,15.85
2023-03-28T06:30:12.723Z,15.10
2023-03-28T06:32:42.042Z,16.58
2023-03-28T06:35:11.680Z,16.63
2023-03-28T06:37:40.879Z,16.48
2023-03-28T06:40:12.010Z,15.30
2023-03-28T06:42:42.127Z,15.25
2023-03-28T06:45:12.375Z,16.27
2023-03-28T06:47:41.739Z,16.27
2023-03-28T06:50:11.848Z,15.15
2023-03-28T06:52:41.421Z,16.25
2023-03-28T06:55:11.189Z,16.00
2023-03-28T06:57:40.533Z,15.50
2023-03-28T07:00:10.548Z,16.10
2023-03-28T07:02:39.879Z,16.02
2023-03-28T07:05:09.538Z,14.82
2023-03-28T07:07:38.693Z,14.63
2023-03-28T07:10:09.104Z,15.45
2023-03-28T07:12:38.649Z,15.68
2023-03-28T07:15:08.507Z,15.68
2023-03-28T07:17:37.854Z,14.07
2023-03-28T07:20:08.295Z,14.32
2023-03-28T07:22:37.520Z,14.95
2023-03-28T07:25:09.034Z,15.27
2023-03-28T07:27:38.255Z,15.10
2023-03-28T07:30:09.138Z,14.48
2023-03-28T07:32:48.113Z,14.95
2023-03-28T07:35:21.752Z,14.77
2023-03-28T07:37:50.903Z,14.73
2023-03-28T07:40:20.122Z,15.05
2023-03-28T07:42:51.623Z,14.88
2023-03-28T07:45:20.888Z,14.50
2023-03-28T07:47:50.277Z,14.77
2023-03-28T07:50:22.321Z,15.25
2023-03-28T07:52:58.342Z,14.75
2023-03-28T07:55:28.429Z,15.13
2023-03-28T07:57:57.759Z,13.95
2023-03-28T08:00:28.468Z,14.77
2023-03-28T08:02:59.994Z,14.30
2023-03-28T08:05:29.400Z,13.65
2023-03-28T08:07:59.494Z,14.43
2023-03-28T08:10:28.788Z,13.93
2023-03-28T08:12:58.140Z,12.82
2023-03-28T08:15:27.854Z,13.85
2023-03-28T08:17:57.282Z,13.85
2023-03-28T08:20:26.729Z,14.07
2023-03-28T08:22:56.170Z,13.95
2023-03-28T08:25:25.426Z,13.15
2023-03-28T08:27:54.632Z,13.15
2023-03-28T08:30:23.920Z,14.50
2023-03-28T08:32:53.361Z,13.18
2023-03-28T08:35:22.647Z,12.98
2023-03-28T08:37:53.152Z,12.40
2023-03-28T08:40:25.705Z,13.32
2023-03-28T08:43:33.769Z,13.93
2023-03-28T08:46:03.496Z,13.55
2023-03-28T08:48:48.393Z,13.18
2023-03-28T08:51:27.089Z,14.00
2023-03-28T08:54:24.393Z,13.82
2023-03-28T08:59:48.395Z,13.38
2023-03-28T09:02:24.649Z,13.50
2023-03-28T09:04:57.999Z,17.02
2023-03-28T09:08:23.584Z,14.48
2023-03-28T09:11:30.196Z,14.27
2023-03-28T09:14:24.999Z,13.73
2023-03-28T09:17:27.967Z,14.38
2023-03-28T09:20:21.316Z,14.27
2023-03-28T09:23:27.346Z,13.93
2023-03-28T09:26:28.781Z,14.38
2023-03-28T09:29:21.724Z,13.60
2023-03-28T09:31:59.117Z,14.88
2023-03-28T09:34:37.802Z,13.88
2023-03-28T09:37:40.389Z,13.98
2023-03-28T09:40:18.950Z,13.73
2023-03-28T09:43:26.837Z,13.73
2023-03-28T09:46:30.006Z,13.90
2023-03-28T09:48:59.916Z,13.73
2023-03-28T09:51:29.735Z,14.55
2023-03-28T09:53:58.986Z,14.07
2023-03-28T09:56:45.143Z,15.63
2023-03-28T09:59:35.885Z,14.27
2023-03-28T10:02:06.346Z,14.82
2023-03-28T10:04:39.908Z,15.23
2023-03-28T10:07:12.213Z,14.77
2023-03-28T10:09:58.165Z,15.85
2023-03-28T10:12:37.608Z,15.80
2023-03-28T10:15:09.824Z,16.13
2023-03-28T10:17:41.719Z,15.63
2023-03-28T10:20:23.185Z,16.65
2023-03-28T10:22:58.188Z,15.32
2023-03-28T10:25:51.193Z,16.08
2023-03-28T10:28:33.354Z,15.68
2023-03-28T10:31:05.131Z,14.55
2023-03-28T10:33:47.358Z,15.07
2023-03-28T10:36:44.933Z,14.80
2023-03-28T10:39:31.129Z,15.63
2023-03-28T10:42:03.116Z,16.92
2023-03-28T10:44:41.556Z,14.68
2023-03-28T10:47:20.551Z,15.25
2023-03-28T10:49:54.791Z,14.77
2023-03-28T10:53:00.557Z,16.02
2023-03-28T10:56:04.132Z,15.13
2023-03-28T10:58:50.152Z,18.70
2023-03-28T11:01:33.610Z,16.60
2023-03-28T11:04:52.579Z,14.68
2023-03-28T11:07:46.469Z,13.85
2023-03-28T11:10:44.317Z,14.55
2023-03-28T11:14:05.378Z,16.48
2023-03-28T11:17:14.936Z,15.65
2023-03-28T11:20:18.528Z,15.25
2023-03-28T11:23:29.667Z,15.90
2023-03-28T11:26:27.366Z,15.27
2023-03-28T11:29:19.152Z,15.65
2023-03-28T11:32:16.391Z,15.57
2023-03-28T11:35:30.240Z,16.52
2023-03-28T11:38:14.850Z,15.40
2023-03-28T11:41:08.737Z,16.33
2023-03-28T11:43:57.274Z,15.30
2023-03-28T11:46:39.235Z,15.93
2023-03-28T11:49:23.628Z,15.75
2023-03-28T11:52:10.956Z,15.80
2023-03-28T11:54:55.288Z,17.67
2023-03-28T11:57:36.113Z,16.65
2023-03-28T12:00:58.920Z,16.50
2023-03-28T12:03:34.505Z,17.40
2023-03-28T12:06:14.167Z,17.13
2023-03-28T12:09:12.209Z,16.17
2023-03-28T12:11:58.124Z,17.65
2023-03-28T12:15:18.147Z,16.20
2023-03-28T12:18:06.072Z,15.75
2023-03-28T12:20:50.607Z,19.23
2023-03-28T12:23:38.862Z,23.30
2023-03-28T12:26:37.707Z,22.63
2023-03-28T12:29:26.436Z,22.27
2023-03-28T12:32:47.796Z,21.70
2023-03-28T12:35:49.250Z,22.48
2023-03-28T12:38:43.817Z,24.13
2023-03-28T12:41:24.389Z,23.75
2023-03-28T12:44:14.688Z,25.95
2023-03-28T12:47:25.707Z,26.45
2023-03-28T12:50:33.762Z,26.55
2023-03-28T12:53:03.292Z,27.38
2023-03-28T12:55:35.343Z,26.73
2023-03-28T12:58:30.915Z,27.42
2023-03-28T13:01:20.841Z,25.58
2023-03-28T13:04:28.886Z,25.00
2023-03-28T13:07:28.212Z,23.10
2023-03-28T13:10:20.976Z,23.48
2023-03-28T13:13:29.317Z,24.23
2023-03-28T13:16:30.836Z,25.35
2023-03-28T13:19:15.210Z,23.83
2023-03-28T13:21:56.013Z,21.88
2023-03-28T13:24:30.152Z,22.88
2023-03-28T13:27:12.342Z,22.73
2023-03-28T13:30:06.437Z,21.65
2023-03-28T13:32:43.392Z,21.80
2023-03-28T13:35:50.283Z,21.50
2023-03-28T13:38:31.885Z,22.40
2023-03-28T13:41:13.727Z,21.60
2023-03-28T13:43:50.253Z,22.67
2023-03-28T13:46:43.170Z,22.55
2023-03-28T13:49:18.939Z,22.15
2023-03-28T13:52:05.901Z,22.77
2023-03-28T13:54:36.218Z,21.40
2023-03-28T13:57:20.135Z,20.95
2023-03-28T14:00:02.456Z,24.67
2023-03-28T14:02:37.192Z,22.08
2023-03-28T14:05:32.501Z,21.40
2023-03-28T14:08:24.819Z,22.83
2023-03-28T14:10:56.486Z,20.80
2023-03-28T14:13:31.887Z,22.15
2023-03-28T14:16:01.381Z,20.73
2023-03-28T14:18:35.776Z,21.10
2023-03-28T14:21:08.651Z,22.25
2023-03-28T14:23:41.489Z,22.88
2023-03-28T14:26:23.158Z,22.30
2023-03-28T14:28:54.470Z,22.70
2023-03-28T14:31:41.233Z,25.40
2023-03-28T14:34:27.174Z,21.55
2023-03-28T14:37:07.157Z,20.98
2023-03-28T14:39:42.607Z,23.05
2023-03-28T14:42:19.681Z,23.20
2023-03-28T14:44:55.643Z,23.13
2023-03-28T14:47:36.129Z,23.38
2023-03-28T14:50:06.598Z,21.70
2023-03-28T14:52:41.759Z,22.35
2023-03-28T14:55:27.167Z,22.60
2023-03-28T14:57:57.929Z,22.40
2023-03-28T15:00:38.716Z,21.08
2023-03-28T15:03:15.980Z,20.45
2023-03-28T15:05:50.009Z,21.30
2023-03-28T15:08:35.157Z,20.05
2023-03-28T15:11:21.911Z,15.80
2023-03-28T15:14:08.715Z,16.17
2023-03-28T15:16:43.296Z,25.70
2023-03-28T15:19:38.569Z,20.13
2023-03-28T15:22:16.530Z,15.93
2023-03-28T15:24:47.159Z,20.05
2023-03-28T15:27:32.179Z,10.82
2023-03-28T15:30:17.754Z,8.30
2023-03-28T15:32:48.046Z,8.30
2023-03-28T15:35:40.898Z,6.57
2023-03-28T15:38:14.673Z,10.93
2023-03-28T15:40:50.258Z,8.50
2023-03-28T15:43:29.175Z,7.75
2023-03-28T15:46:13.782Z,8.95
2023-03-28T15:48:44.871Z,12.10
2023-03-28T15:51:20.895Z,8.80
2023-03-28T15:53:52.720Z,11.95
2023-03-28T15:56:32.958Z,14.07
2023-03-28T15:59:15.553Z,14.23
2023-03-28T16:01:45.283Z,10.88
2023-03-28T16:04:27.282Z,10.35
2023-03-28T16:07:21.559Z,9.05
2023-03-28T16:09:52.272Z,9.10
2023-03-28T16:12:22.008Z,9.10
2023-03-28T16:14:56.111Z,7.80
2023-03-28T16:17:29.721Z,7.80
2023-03-28T16:20:00.439Z,8.18
2023-03-28T16:22:30.008Z,8.38
2023-03-28T16:24:59.253Z,7.72
2023-03-28T16:27:28.531Z,9.48
2023-03-28T16:29:57.876Z,8.63
2023-03-28T16:32:27.637Z,9.25
2023-03-28T16:34:57.064Z,8.57
2023-03-28T16:37:26.285Z,8.68
2023-03-28T16:39:55.655Z,9.30
2023-03-28T16:42:27.833Z,8.25
2023-03-28T16:44:57.380Z,8.38
2023-03-28T16:47:27.140Z,7.35
2023-03-28T16:49:59.800Z,6.70
2023-03-28T16:52:30.057Z,6.05
2023-03-28T16:54:59.415Z,5.00
2023-03-28T16:57:29.043Z,5.43
2023-03-28T16:59:58.397Z,4.45
2023-03-28T17:02:27.870Z,5.45
2023-03-28T17:04:57.249Z,5.82
2023-03-28T17:07:26.968Z,6.18
2023-03-28T17:09:56.765Z,5.93
2023-03-28T17:12:27.136Z,6.28
2023-03-28T17:14:56.437Z,4.53
2023-03-28T17:17:25.743Z,5.68
2023-03-28T17:19:55.009Z,5.22
2023-03-28T17:22:24.353Z,5.25
2023-03-28T17:24:56.537Z,5.05
2023-03-28T17:27:25.884Z,5.70
2023-03-28T17:29:55.377Z,4.85
2023-03-28T17:32:25.088Z,5.72
2023-03-28T17:34:54.735Z,5.35
2023-03-28T17:37:25.283Z,5.38
2023-03-28T17:39:54.751Z,5.88
2023-03-28T17:42:25.278Z,5.25
2023-03-28T17:44:55.636Z,4.68
2023-03-28T17:47:25.030Z,4.63
2023-03-28T17:49:56.934Z,5.03
2023-03-28T17:52:26.259Z,5.22
2023-03-28T17:54:55.522Z,4.57
2023-03-28T17:57:25.144Z,4.75
2023-03-28T17:59:55.597Z,4.05
2023-03-28T18:02:25.931Z,5.18
2023-03-28T18:04:55.312Z,4.68
2023-03-28T18:07:24.810Z,5.93
2023-03-28T18:09:54.792Z,5.70
2023-03-28T18:12:24.184Z,6.35
2023-03-28T18:14:53.432Z,4.63
2023-03-28T18:17:23.967Z,4.20
2023-03-28T18:19:53.449Z,4.75
2023-03-28T18:22:22.970Z,4.43
2023-03-28T18:24:52.249Z,4.35
2023-03-28T18:27:21.501Z,4.30
2023-03-28T18:29:50.814Z,4.35
2023-03-28T18:32:20.231Z,5.13
2023-03-28T18:34:49.475Z,5.43
2023-03-28T18:37:18.737Z,7.47
2023-03-28T18:39:48.090Z,8.80
2023-03-28T18:42:17.484Z,7.75
2023-03-28T18:44:47.573Z,8.55
2023-03-28T18:47:17.698Z,7.93
2023-03-28T18:49:47.211Z,8.52
2023-03-28T18:52:16.681Z,8.23
2023-03-28T18:54:46.794Z,8.07
2023-03-28T18:57:17.007Z,8.05
2023-03-28T18:59:46.529Z,8.55
2023-03-28T19:02:18.583Z,8.95
2023-03-28T19:04:48.422Z,8.85
2023-03-28T19:07:19.952Z,9.32
2023-03-28T19:09:49.839Z,10.52
2023-03-28T19:12:19.065Z,10.75
2023-03-28T19:14:48.356Z,9.45
2023-03-28T19:17:17.820Z,11.95
2023-03-28T19:19:47.198Z,10.40
2023-03-28T19:22:16.596Z,10.38
2023-03-28T19:24:45.875Z,10.00
2023-03-28T19:27:15.148Z,11.13
2023-03-28T19:29:44.403Z,11.23
2023-03-28T19:32:13.699Z,9.40
2023-03-28T19:34:42.940Z,10.27
2023-03-28T19:37:12.629Z,9.35
2023-03-28T19:39:42.069Z,9.65
2023-03-28T19:42:11.614Z,9.77
2023-03-28T19:44:40.896Z,9.70
2023-03-28T19:47:10.100Z,9.15
2023-03-28T19:49:39.743Z,9.35
2023-03-28T19:52:10.856Z,9.55
2023-03-28T19:54:40.436Z,9.73
2023-03-28T19:57:09.805Z,9.73
2023-03-28T19:59:39.450Z,9.82
2023-03-28T20:02:10.618Z,9.25
2023-03-28T20:04:39.979Z,10.10
2023-03-28T20:07:09.296Z,9.43
2023-03-28T20:09:38.577Z,9.40
2023-03-28T20:12:08.022Z,9.52
2023-03-28T20:14:37.321Z,10.73
2023-03-28T20:17:06.644Z,10.15
2023-03-28T20:19:38.620Z,9.35
2023-03-28T20:22:09.007Z,9.68
2023-03-28T20:24:38.629Z,10.73
2023-03-28T20:27:07.898Z,11.10
2023-03-28T20:29:38.380Z,9.80
2023-03-28T20:32:09.825Z,10.52
2023-03-28T20:34:39.661Z,10.60
2023-03-28T20:37:09.322Z,9.95
2023-03-28T20:39:38.609Z,9.60
2023-03-28T20:42:08.166Z,10.82
2023-03-28T20:44:40.518Z,9.88
2023-03-28T20:47:11.658Z,10.15
2023-03-28T20:49:47.234Z,11.73
2023-03-28T20:52:16.707Z,11.00
2023-03-28T20:54:47.162Z,10.30
2023-03-28T20:57:16.475Z,11.13
2023-03-28T20:59:45.798Z,11.13
2023-03-28T21:02:15.817Z,10.32
2023-03-28T21:04:45.355Z,11.02
2023-03-28T21:07:15.044Z,10.77
2023-03-28T21:09:44.450Z,11.13
2023-03-28T21:12:13.738Z,10.68
2023-03-28T21:14:42.988Z,11.10
2023-03-28T21:17:26.147Z,10.50
2023-03-28T21:19:55.903Z,9.95
2023-03-28T21:22:25.153Z,9.93
2023-03-28T21:24:54.512Z,10.50
2023-03-28T21:27:23.792Z,11.38
2023-03-28T21:29:53.388Z,11.68
2023-03-28T21:32:22.718Z,10.95
2023-03-28T21:34:52.219Z,11.40
2023-03-28T21:37:21.418Z,11.55
2023-03-28T21:39:50.715Z,10.48
2023-03-28T21:42:19.957Z,11.10
2023-03-28T21:44:49.213Z,11.27
2023-03-28T21:47:18.512Z,11.38
2023-03-28T21:49:50.307Z,13.52
2023-03-28T21:52:20.593Z,12.85
2023-03-28T21:54:49.848Z,11.55
2023-03-28T21:57:19.161Z,10.80
2023-03-28T21:59:48.464Z,11.43
2023-03-28T22:02:18.088Z,11.40
2023-03-28T22:04:48.141Z,11.48
2023-03-28T22:07:17.410Z,11.07
2023-03-28T22:09:46.639Z,12.07
2023-03-28T22:12:15.891Z,11.40
2023-03-28T22:14:45.177Z,11.40
2023-03-28T22:17:14.890Z,11.60
2023-03-28T22:19:43.974Z,12.40
2023-03-28T22:22:13.067Z,12.15
2023-03-28T22:24:42.236Z,11.85
2023-03-28T22:27:11.755Z,12.57
2023-03-28T22:29:41.010Z,11.98
2023-03-28T22:32:10.260Z,11.30
2023-03-28T22:34:39.557Z,13.30
2023-03-28T22:37:10.050Z,12.35
2023-03-28T22:39:39.157Z,13.55
2023-03-28T22:42:09.576Z,13.10
2023-03-28T22:44:38.863Z,12.27
2023-03-28T22:47:07.915Z,13.60
2023-03-28T22:49:39.192Z,15.38
2023-03-28T22:52:08.360Z,15.40
2023-03-28T22:54:38.635Z,13.27
2023-03-28T22:57:08.180Z,12.82
2023-03-28T22:59:37.369Z,13.73
2023-03-28T23:02:07.077Z,14.77
2023-03-28T23:04:36.286Z,15.73
2023-03-28T23:07:05.636Z,14.43
2023-03-28T23:09:34.959Z,16.08
2023-03-28T23:12:04.214Z,16.27
2023-03-28T23:14:34.137Z,13.82
2023-03-28T23:17:04.591Z,14.43
2023-03-28T23:19:34.078Z,14.55
2023-03-28T23:22:03.499Z,16.67
2023-03-28T23:24:32.958Z,14.95
2023-03-28T23:27:02.199Z,15.70
2023-03-28T23:29:31.900Z,15.93
2023-03-28T23:32:01.344Z,15.77
2023-03-28T23:34:30.636Z,17.25
2023-03-28T23:37:02.513Z,19.92
2023-03-28T23:39:32.253Z,16.00
2023-03-28T23:42:01.592Z,14.05
2023-03-28T23:44:31.784Z,15.63
2023-03-28T23:47:01.872Z,14.40
2023-03-28T23:49:31.266Z,15.38
2023-03-28T23:52:00.872Z,15.63
2023-03-28T23:54:31.522Z,17.13
2023-03-28T23:57:00.848Z,17.13
2023-03-28T23:59:30.962Z,15.40
